createdAt,value
2023-03-24T00:00:21.267Z,99135.31
2023-03-24T00:02:51.353Z,99129.34
2023-03-24T00:05:22.686Z,99128.94
2023-03-24T00:10:22.772Z,99129.84
2023-03-24T00:12:51.454Z,99116.06
2023-03-24T00:15:21.681Z,99119.91
2023-03-24T00:17:51.006Z,99111.25
2023-03-24T00:20:22.245Z,99108.72
2023-03-24T00:22:57.045Z,99102.47
2023-03-24T00:25:29.104Z,99102.25
2023-03-24T00:27:57.451Z,99103.88
2023-03-24T00:30:26.207Z,99100.81
2023-03-24T00:32:54.161Z,99097.97
2023-03-24T00:35:23.372Z,99104.50
2023-03-24T00:37:52.009Z,99087.88
2023-03-24T00:40:20.945Z,99088.81
2023-03-24T00:42:50.052Z,99085.75
2023-03-24T00:45:19.969Z,99070.38
2023-03-24T00:47:49.974Z,99085.41
2023-03-24T00:50:21.175Z,99078.19
2023-03-24T00:52:50.275Z,99066.31
2023-03-24T00:55:18.100Z,99053.00
2023-03-24T00:57:50.495Z,99048.75
2023-03-24T01:00:23.771Z,99062.50
2023-03-24T01:02:54.204Z,99057.03
2023-03-24T01:05:22.809Z,99041.06
2023-03-24T01:07:53.047Z,99043.94
2023-03-24T01:10:26.080Z,99049.91
2023-03-24T01:12:54.986Z,99043.91
2023-03-24T01:15:24.695Z,99029.47
2023-03-24T01:17:53.436Z,99035.41
2023-03-24T01:20:23.083Z,99023.78
2023-03-24T01:22:52.638Z,99026.66
2023-03-24T01:25:22.322Z,99013.88
2023-03-24T01:27:51.628Z,99016.47
2023-03-24T01:30:22.377Z,98999.19
2023-03-24T01:32:50.146Z,98998.56
2023-03-24T01:35:18.720Z,98993.66
2023-03-24T01:37:46.477Z,98989.06
2023-03-24T01:40:18.833Z,98985.63
2023-03-24T01:42:46.892Z,98969.47
2023-03-24T01:45:44.154Z,98981.16
2023-03-24T01:48:14.404Z,98971.53
2023-03-24T01:50:44.059Z,98981.28
2023-03-24T01:53:12.202Z,98981.34
2023-03-24T01:55:41.308Z,98977.00
2023-03-24T01:58:09.525Z,98955.03
2023-03-24T02:00:38.064Z,98959.16
2023-03-24T02:03:09.512Z,98966.50
2023-03-24T02:05:39.505Z,98946.59
2023-03-24T02:08:11.294Z,98948.28
2023-03-24T02:10:38.988Z,98940.09
2023-03-24T02:13:10.283Z,98942.56
2023-03-24T02:15:41.406Z,98936.44
2023-03-24T02:18:18.708Z,98922.16
2023-03-24T02:21:03.685Z,98922.22
2023-03-24T02:23:46.318Z,98916.75
2023-03-24T02:26:27.545Z,98903.94
2023-03-24T02:29:04.262Z,98909.72
2023-03-24T02:31:43.482Z,98906.47
2023-03-24T02:34:41.053Z,98906.41
2023-03-24T02:37:30.428Z,98900.97
2023-03-24T02:40:20.827Z,98888.69
2023-03-24T02:43:00.290Z,98875.56
2023-03-24T02:45:35.264Z,98878.91
2023-03-24T02:48:14.417Z,98869.69
2023-03-24T02:50:46.365Z,98875.09
2023-03-24T02:53:18.032Z,98873.94
2023-03-24T02:55:53.790Z,98874.59
2023-03-24T02:58:25.982Z,98867.78
2023-03-24T03:00:59.387Z,98864.00
2023-03-24T03:03:31.324Z,98855.31
2023-03-24T03:06:02.388Z,98847.34
2023-03-24T03:08:32.525Z,98862.97
2023-03-24T03:11:03.232Z,98853.28
2023-03-24T03:13:32.710Z,98849.31
2023-03-24T03:16:05.613Z,98846.16
2023-03-24T03:18:35.361Z,98835.38
2023-03-24T03:21:07.305Z,98827.75
2023-03-24T03:23:37.292Z,98820.53
2023-03-24T03:26:09.858Z,98812.78
2023-03-24T03:28:41.343Z,98807.19
2023-03-24T03:31:14.960Z,98800.97
2023-03-24T03:33:45.662Z,98806.53
2023-03-24T03:36:16.607Z,98818.19
2023-03-24T03:38:49.142Z,98809.47
2023-03-24T03:41:19.043Z,98805.13
2023-03-24T03:43:47.073Z,98805.06
2023-03-24T03:46:14.986Z,98805.88
2023-03-24T03:48:42.874Z,98794.72
2023-03-24T03:51:14.180Z,98805.72
2023-03-24T03:53:46.280Z,98803.84
2023-03-24T03:56:14.190Z,98801.44
2023-03-24T03:58:46.733Z,98813.81
2023-03-24T04:01:18.836Z,98806.72
2023-03-24T04:04:00.738Z,98811.72
2023-03-24T04:06:36.103Z,98818.53
2023-03-24T04:09:11.415Z,98804.94
2023-03-24T04:11:55.631Z,98802.50
2023-03-24T04:14:41.771Z,98824.56
2023-03-24T04:17:15.763Z,98815.88
2023-03-24T04:19:56.033Z,98815.16
2023-03-24T04:22:27.957Z,98822.94
2023-03-24T04:24:57.793Z,98822.97
2023-03-24T04:27:29.687Z,98820.88
2023-03-24T04:30:07.617Z,98812.91
2023-03-24T04:32:43.238Z,98833.53
2023-03-24T04:35:14.730Z,98818.78
2023-03-24T04:37:43.136Z,98825.66
2023-03-24T04:40:12.534Z,98832.22
2023-03-24T04:42:42.707Z,98828.50
2023-03-24T04:45:13.376Z,98813.91
2023-03-24T04:47:44.958Z,98821.50
2023-03-24T04:50:14.416Z,98814.72
2023-03-24T04:52:42.916Z,98826.81
2023-03-24T04:55:32.204Z,98831.50
2023-03-24T04:58:00.173Z,98835.63
2023-03-24T05:00:29.209Z,98836.91
2023-03-24T05:02:56.932Z,98823.25
2023-03-24T05:05:24.634Z,98824.69
2023-03-24T05:08:13.824Z,98825.63
2023-03-24T05:10:41.598Z,98843.94
2023-03-24T05:13:09.693Z,98856.25
2023-03-24T05:15:38.875Z,98878.47
2023-03-24T05:18:07.712Z,98895.59
2023-03-24T05:20:35.692Z,98913.44
2023-03-24T05:23:03.342Z,98914.31
2023-03-24T05:25:31.005Z,98921.81
2023-03-24T05:27:59.405Z,98919.38
2023-03-24T05:30:27.224Z,98931.38
2023-03-24T05:32:56.367Z,98936.56
2023-03-24T05:35:25.009Z,98919.09
2023-03-24T05:37:52.983Z,98954.84
2023-03-24T05:40:20.699Z,98974.31
2023-03-24T05:42:50.041Z,98968.34
2023-03-24T05:45:18.350Z,98978.25
2023-03-24T05:47:47.471Z,98985.91
2023-03-24T05:50:16.718Z,99002.00
2023-03-24T05:52:45.523Z,99011.66
2023-03-24T05:55:13.190Z,99027.41
2023-03-24T05:57:41.179Z,99034.31
2023-03-24T06:00:15.215Z,99029.34
2023-03-24T06:02:43.182Z,99043.56
2023-03-24T06:05:11.668Z,99032.22
2023-03-24T06:07:46.331Z,99035.91
2023-03-24T06:10:14.425Z,99043.03
2023-03-24T06:12:42.786Z,99047.72
2023-03-24T06:15:11.643Z,99046.34
2023-03-24T06:17:39.317Z,99067.22
2023-03-24T06:20:15.899Z,99076.31
2023-03-24T06:22:47.414Z,99078.34
2023-03-24T06:25:16.927Z,99072.66
2023-03-24T06:27:46.187Z,99089.38
2023-03-24T06:30:15.648Z,99095.19
2023-03-24T06:32:47.025Z,99091.19
2023-03-24T06:35:15.910Z,99082.38
2023-03-24T06:37:45.383Z,99087.09
2023-03-24T06:40:16.108Z,99089.59
2023-03-24T06:42:43.771Z,99094.56
2023-03-24T06:45:11.923Z,99102.19
2023-03-24T06:47:39.574Z,99095.47
2023-03-24T06:50:08.123Z,99098.06
2023-03-24T06:52:36.180Z,99114.84
2023-03-24T06:55:06.380Z,99108.19
2023-03-24T06:57:34.043Z,99113.72
2023-03-24T07:00:01.731Z,99107.53
2023-03-24T07:02:35.492Z,99117.47
2023-03-24T07:05:09.021Z,99108.38
2023-03-24T07:10:09.610Z,99123.69
2023-03-24T07:12:37.614Z,99126.31
2023-03-24T07:15:07.331Z,99122.63
2023-03-24T07:17:35.148Z,99132.19
2023-03-24T07:20:05.459Z,99135.91
2023-03-24T07:22:33.272Z,99122.56
2023-03-24T07:25:04.618Z,99126.03
2023-03-24T07:27:33.971Z,99139.22
2023-03-24T07:30:02.090Z,99142.19
2023-03-24T07:32:35.075Z,99147.94
2023-03-24T07:35:04.284Z,99154.22
2023-03-24T07:37:31.984Z,99144.81
2023-03-24T07:40:00.106Z,99143.44
2023-03-24T07:42:27.790Z,99129.00
2023-03-24T07:44:57.237Z,99143.47
2023-03-24T07:47:26.084Z,99137.59
2023-03-24T07:49:54.632Z,99130.78
2023-03-24T07:52:22.264Z,99123.38
2023-03-24T07:54:50.088Z,99129.78
2023-03-24T07:57:17.797Z,99142.22
2023-03-24T07:59:45.717Z,99143.06
2023-03-24T08:02:18.304Z,99155.41
2023-03-24T08:04:46.968Z,99161.84
2023-03-24T08:07:14.951Z,99161.66
2023-03-24T08:09:42.785Z,99145.16
2023-03-24T08:12:20.056Z,99156.34
2023-03-24T08:14:48.432Z,99163.63
2023-03-24T08:17:17.589Z,99150.75
2023-03-24T08:19:58.390Z,99154.53
2023-03-24T08:22:28.166Z,99168.72
2023-03-24T08:24:55.825Z,99171.34
2023-03-24T08:27:23.508Z,99191.94
2023-03-24T08:29:51.795Z,99189.16
2023-03-24T08:32:21.261Z,99163.03
2023-03-24T08:34:48.904Z,99188.94
2023-03-24T08:37:16.689Z,99191.97
2023-03-24T08:39:44.598Z,99190.88
2023-03-24T08:42:12.306Z,99204.50
2023-03-24T08:44:40.332Z,99212.06
2023-03-24T08:47:08.125Z,99219.19
2023-03-24T08:49:37.448Z,99220.88
2023-03-24T08:52:05.548Z,99224.38
2023-03-24T08:54:33.205Z,99207.66
2023-03-24T08:57:01.295Z,99219.25
2023-03-24T08:59:29.005Z,99220.75
2023-03-24T09:01:56.738Z,99227.75
2023-03-24T09:04:24.582Z,99216.03
2023-03-24T09:07:02.317Z,99211.84
2023-03-24T09:09:30.676Z,99219.25
2023-03-24T09:11:58.414Z,99226.59
2023-03-24T09:14:35.358Z,99223.13
2023-03-24T09:17:03.022Z,99215.28
2023-03-24T09:19:32.344Z,99224.66
2023-03-24T09:22:01.325Z,99228.56
2023-03-24T09:24:28.949Z,99217.34
2023-03-24T09:26:56.872Z,99223.63
2023-03-24T09:29:24.688Z,99225.31
2023-03-24T09:31:53.773Z,99226.06
2023-03-24T09:34:21.889Z,99221.66
2023-03-24T09:36:50.766Z,99218.63
2023-03-24T09:39:20.166Z,99227.94
2023-03-24T09:41:48.705Z,99232.09
2023-03-24T09:44:23.181Z,99234.03
2023-03-24T09:46:52.650Z,99243.72
2023-03-24T09:49:25.335Z,99243.53
2023-03-24T09:51:57.700Z,99247.72
2023-03-24T09:54:32.873Z,99230.31
2023-03-24T09:57:00.768Z,99239.63
2023-03-24T09:59:33.562Z,99240.47
2023-03-24T10:02:01.451Z,99252.72
2023-03-24T10:04:32.074Z,99250.53
2023-03-24T10:07:02.901Z,99246.19
2023-03-24T10:09:33.134Z,99250.31
2023-03-24T10:12:12.907Z,99252.34
2023-03-24T10:14:54.815Z,99236.31
2023-03-24T10:17:30.519Z,99249.13
2023-03-24T10:20:02.556Z,99243.03
2023-03-24T10:22:37.717Z,99257.53
2023-03-24T10:25:14.867Z,99256.28
2023-03-24T10:27:44.544Z,99263.31
2023-03-24T10:30:16.171Z,99274.59
2023-03-24T10:32:44.350Z,99273.78
2023-03-24T10:35:17.317Z,99281.94
2023-03-24T10:37:45.920Z,99271.34
2023-03-24T10:40:18.004Z,99275.16
2023-03-24T10:42:48.854Z,99279.94
2023-03-24T10:45:24.922Z,99278.69
2023-03-24T10:47:52.719Z,99292.97
2023-03-24T10:50:25.689Z,99288.75
2023-03-24T10:52:53.435Z,99288.25
2023-03-24T10:55:24.566Z,99290.22
2023-03-24T10:57:54.923Z,99292.00
2023-03-24T11:00:26.937Z,99303.94
2023-03-24T11:02:58.728Z,99298.41
2023-03-24T11:05:30.764Z,99296.56
2023-03-24T11:08:13.644Z,99295.56
2023-03-24T11:10:42.875Z,99295.25
2023-03-24T11:13:19.310Z,99301.78
2023-03-24T11:15:58.970Z,99296.09
2023-03-24T11:18:27.297Z,99286.41
2023-03-24T11:20:58.324Z,99305.50
2023-03-24T11:23:31.334Z,99309.59
2023-03-24T11:26:10.787Z,99316.34
2023-03-24T11:28:41.165Z,99314.66
2023-03-24T11:31:11.581Z,99311.31
2023-03-24T11:33:45.464Z,99330.16
2023-03-24T11:36:47.094Z,99342.94
2023-03-24T11:39:19.083Z,99335.09
2023-03-24T11:42:01.082Z,99337.41
2023-03-24T11:44:32.417Z,99332.53
2023-03-24T11:47:01.992Z,99330.13
2023-03-24T11:49:32.896Z,99315.84
2023-03-24T11:52:00.657Z,99316.63
2023-03-24T11:54:32.999Z,99301.66
2023-03-24T11:57:05.749Z,99303.75
2023-03-24T11:59:37.296Z,99300.38
2023-03-24T12:02:14.567Z,99306.75
2023-03-24T12:04:50.085Z,99308.94
2023-03-24T12:07:42.237Z,99304.91
2023-03-24T12:10:19.783Z,99305.72
2023-03-24T12:12:53.531Z,99310.75
2023-03-24T12:15:29.247Z,99327.75
2023-03-24T12:18:06.099Z,99344.94
2023-03-24T12:20:37.817Z,99343.34
2023-03-24T12:23:09.215Z,99338.78
2023-03-24T12:25:41.949Z,99334.97
2023-03-24T12:28:27.909Z,99328.19
2023-03-24T12:31:06.187Z,99313.69
2023-03-24T12:33:45.187Z,99304.19
2023-03-24T12:36:31.899Z,99321.19
2023-03-24T12:39:09.659Z,99305.88
2023-03-24T12:42:21.333Z,99305.88
2023-03-24T12:45:02.627Z,99308.16
2023-03-24T12:47:39.581Z,99298.59
2023-03-24T12:50:22.600Z,99302.91
2023-03-24T12:53:08.393Z,99300.22
2023-03-24T12:55:40.914Z,99295.84
2023-03-24T12:58:14.654Z,99292.34
2023-03-24T13:00:47.352Z,99272.91
2023-03-24T13:03:19.619Z,99274.28
2023-03-24T13:05:51.368Z,99268.72
2023-03-24T13:08:23.011Z,99269.53
2023-03-24T13:10:54.416Z,99272.06
2023-03-24T13:13:23.558Z,99262.91
2023-03-24T13:15:56.465Z,99272.84
2023-03-24T13:18:30.998Z,99270.84
2023-03-24T13:21:03.101Z,99265.94
2023-03-24T13:23:38.580Z,99247.22
2023-03-24T13:26:12.402Z,99249.00
2023-03-24T13:28:46.243Z,99258.19
2023-03-24T13:31:16.328Z,99245.72
2023-03-24T13:33:45.053Z,99252.00
2023-03-24T13:36:29.007Z,99248.56
2023-03-24T13:38:58.896Z,99250.84
2023-03-24T13:41:27.973Z,99251.00
2023-03-24T13:44:00.957Z,99245.00
2023-03-24T13:46:30.410Z,99266.09
2023-03-24T13:49:00.234Z,99257.94
2023-03-24T13:51:31.691Z,99258.69
2023-03-24T13:54:01.550Z,99264.63
2023-03-24T13:56:34.448Z,99275.91
2023-03-24T13:59:20.396Z,99274.72
2023-03-24T14:02:19.175Z,99274.81
2023-03-24T14:04:47.846Z,99276.56
2023-03-24T14:07:32.155Z,99303.16
2023-03-24T14:10:02.024Z,99362.03
2023-03-24T14:12:33.223Z,99392.72
2023-03-24T14:15:15.011Z,99374.78
2023-03-24T14:17:47.313Z,99383.31
2023-03-24T14:20:27.103Z,99388.25
2023-03-24T14:22:57.881Z,99380.66
2023-03-24T14:25:28.167Z,99383.88
2023-03-24T14:28:21.488Z,99386.47
2023-03-24T14:31:04.061Z,99370.06
2023-03-24T14:33:33.274Z,99362.56
2023-03-24T14:36:06.448Z,99356.94
2023-03-24T14:38:37.208Z,99371.16
2023-03-24T14:41:09.981Z,99366.03
2023-03-24T14:43:58.584Z,99356.44
2023-03-24T14:46:42.070Z,99322.88
2023-03-24T14:49:24.686Z,99345.13
2023-03-24T14:51:59.180Z,99341.44
2023-03-24T14:54:31.635Z,99339.34
2023-03-24T14:56:59.697Z,99339.72
2023-03-24T14:59:37.131Z,99346.47
2023-03-24T15:02:15.387Z,99342.31
2023-03-24T15:05:17.601Z,99340.81
2023-03-24T15:07:46.770Z,99339.59
2023-03-24T15:10:16.424Z,99338.44
2023-03-24T15:12:45.607Z,99321.41
2023-03-24T15:15:18.900Z,99334.81
2023-03-24T15:17:47.719Z,99324.28
2023-03-24T15:20:25.708Z,99314.34
2023-03-24T15:22:55.342Z,99311.28
2023-03-24T15:25:27.416Z,99306.56
2023-03-24T15:27:56.802Z,99312.69
2023-03-24T15:30:25.132Z,99324.03
2023-03-24T15:32:53.301Z,99336.31
2023-03-24T15:35:24.591Z,99322.03
2023-03-24T15:37:54.175Z,99330.44
2023-03-24T15:40:36.678Z,99314.31
2023-03-24T15:43:06.676Z,99326.78
2023-03-24T15:45:36.507Z,99337.03
2023-03-24T15:48:07.757Z,99333.22
2023-03-24T15:50:38.513Z,99336.03
2023-03-24T15:53:08.454Z,99318.38
2023-03-24T15:55:37.244Z,99328.72
2023-03-24T15:58:22.023Z,99326.25
2023-03-24T16:00:50.993Z,99319.88
2023-03-24T16:03:19.063Z,99310.56
2023-03-24T16:05:51.312Z,99307.84
2023-03-24T16:08:27.460Z,99307.69
2023-03-24T16:11:00.418Z,99322.31
2023-03-24T16:13:28.571Z,99305.44
2023-03-24T16:15:58.644Z,99321.44
2023-03-24T16:18:28.929Z,99305.25
2023-03-24T16:20:58.265Z,99319.25
2023-03-24T16:23:26.836Z,99317.53
2023-03-24T16:25:54.597Z,99313.50
2023-03-24T16:28:24.960Z,99319.63
2023-03-24T16:30:58.052Z,99339.97
2023-03-24T16:33:28.090Z,99351.44
2023-03-24T16:35:56.031Z,99359.63
2023-03-24T16:38:25.457Z,99365.03
2023-03-24T16:40:54.277Z,99353.72
2023-03-24T16:43:22.246Z,99329.34
2023-03-24T16:45:51.054Z,99338.59
2023-03-24T16:48:37.640Z,99333.38
2023-03-24T16:51:05.811Z,99316.97
2023-03-24T16:53:37.695Z,99321.94
2023-03-24T16:56:06.200Z,99327.63
2023-03-24T16:58:34.056Z,99314.06
2023-03-24T17:01:01.771Z,99327.91
2023-03-24T17:03:30.195Z,99317.41
2023-03-24T17:05:58.863Z,99306.78
2023-03-24T17:08:26.553Z,99319.56
2023-03-24T17:10:55.664Z,99315.09
2023-03-24T17:13:24.900Z,99312.19
2023-03-24T17:15:53.446Z,99315.13
2023-03-24T17:18:21.170Z,99305.69
2023-03-24T17:20:49.086Z,99306.47
2023-03-24T17:23:18.938Z,99301.69
2023-03-24T17:25:46.966Z,99304.13
2023-03-24T17:28:17.066Z,99316.69
2023-03-24T17:30:44.984Z,99308.97
2023-03-24T17:33:13.865Z,99306.31
2023-03-24T17:35:41.626Z,99302.97
2023-03-24T17:38:11.920Z,99306.97
2023-03-24T17:40:39.594Z,99312.06
2023-03-24T17:43:07.278Z,99308.34
2023-03-24T17:45:36.699Z,99304.72
2023-03-24T17:48:04.695Z,99304.72
2023-03-24T17:50:32.406Z,99312.34
2023-03-24T17:53:00.729Z,99309.03
2023-03-24T17:55:28.417Z,99306.91
2023-03-24T17:57:56.125Z,99317.25
2023-03-24T18:00:23.888Z,99311.28
2023-03-24T18:02:52.980Z,99311.09
2023-03-24T18:05:21.225Z,99308.91
2023-03-24T18:07:49.163Z,99312.44
2023-03-24T18:10:16.879Z,99298.38
2023-03-24T18:12:44.515Z,99308.13
2023-03-24T18:15:12.707Z,99315.16
2023-03-24T18:17:40.737Z,99317.84
2023-03-24T18:20:12.180Z,99322.13
2023-03-24T18:22:41.010Z,99318.09
2023-03-24T18:25:10.379Z,99315.69
2023-03-24T18:27:38.864Z,99310.56
2023-03-24T18:30:08.632Z,99319.47
2023-03-24T18:32:38.982Z,99313.00
2023-03-24T18:35:07.921Z,99321.91
2023-03-24T18:37:37.320Z,99304.63
2023-03-24T18:40:08.481Z,99313.22
2023-03-24T18:42:36.242Z,99314.03
2023-03-24T18:45:04.036Z,99303.78
2023-03-24T18:47:31.747Z,99300.56
2023-03-24T18:49:59.426Z,99305.94
2023-03-24T18:52:27.166Z,99305.66
2023-03-24T18:54:56.206Z,99310.28
2023-03-24T18:57:23.989Z,99301.91
2023-03-24T18:59:51.825Z,99313.47
2023-03-24T19:02:19.538Z,99303.78
2023-03-24T19:04:48.206Z,99311.09
2023-03-24T19:07:24.274Z,99307.59
2023-03-24T19:09:52.597Z,99304.59
2023-03-24T19:12:21.709Z,99304.06
2023-03-24T19:14:49.565Z,99302.69
2023-03-24T19:17:24.068Z,99304.28
2023-03-24T19:19:51.963Z,99292.22
2023-03-24T19:22:22.241Z,99302.41
2023-03-24T19:24:50.099Z,99297.28
2023-03-24T19:27:19.023Z,99289.78
2023-03-24T19:29:48.166Z,99288.41
2023-03-24T19:32:16.104Z,99287.38
2023-03-24T19:34:43.988Z,99280.09
2023-03-24T19:37:13.943Z,99284.38
2023-03-24T19:39:41.556Z,99280.09
2023-03-24T19:42:09.201Z,99292.47
2023-03-24T19:44:36.956Z,99291.91
2023-03-24T19:47:08.200Z,99282.78
2023-03-24T19:49:36.141Z,99276.59
2023-03-24T19:52:04.325Z,99273.06
2023-03-24T19:54:31.984Z,99262.84
2023-03-24T19:56:59.661Z,99257.19
2023-03-24T19:59:27.550Z,99267.97
2023-03-24T20:01:55.484Z,99271.44
2023-03-24T20:04:24.912Z,99265.53
2023-03-24T20:06:52.667Z,99266.06
2023-03-24T20:09:20.487Z,99264.47
2023-03-24T20:11:48.626Z,99260.69
2023-03-24T20:14:18.464Z,99265.50
2023-03-24T20:16:46.104Z,99276.31
2023-03-24T20:19:13.765Z,99280.91
2023-03-24T20:21:42.983Z,99276.31
2023-03-24T20:24:10.652Z,99280.09
2023-03-24T20:26:38.472Z,99266.88
2023-03-24T20:29:06.158Z,99262.59
2023-03-24T20:31:36.194Z,99255.56
2023-03-24T20:34:03.979Z,99250.47
2023-03-24T20:36:32.402Z,99253.94
2023-03-24T20:39:02.487Z,99249.66
2023-03-24T20:41:30.454Z,99258.28
2023-03-24T20:43:58.148Z,99241.28
2023-03-24T20:46:26.083Z,99260.16
2023-03-24T20:48:53.758Z,99246.13
2023-03-24T20:51:21.937Z,99252.06
2023-03-24T20:53:50.109Z,99245.59
2023-03-24T20:56:19.234Z,99252.59
2023-03-24T20:58:47.041Z,99250.19
2023-03-24T21:01:20.511Z,99247.47
2023-03-24T21:03:48.570Z,99244.50
2023-03-24T21:06:16.715Z,99242.09
2023-03-24T21:08:45.380Z,99244.50
2023-03-24T21:11:13.862Z,99235.09
2023-03-24T21:13:43.904Z,99229.44
2023-03-24T21:16:13.044Z,99234.00
2023-03-24T21:18:42.673Z,99230.25
2023-03-24T21:21:12.561Z,99237.25
2023-03-24T21:23:41.512Z,99219.47
2023-03-24T21:26:12.334Z,99226.75
2023-03-24T21:28:41.104Z,99228.34
2023-03-24T21:31:12.397Z,99221.63
2023-03-24T21:33:40.961Z,99221.63
2023-03-24T21:36:10.121Z,99222.97
2023-03-24T21:38:39.066Z,99237.00
2023-03-24T21:41:07.587Z,99232.16
2023-03-24T21:43:35.770Z,99234.81
2023-03-24T21:46:04.092Z,99236.44
2023-03-24T21:48:35.016Z,99235.91
2023-03-24T21:51:04.050Z,99243.69
2023-03-24T21:53:32.009Z,99235.66
2023-03-24T21:56:04.445Z,99226.75
2023-03-24T21:58:32.880Z,99232.13
2023-03-24T22:01:01.491Z,99233.19
2023-03-24T22:03:30.342Z,99229.44
2023-03-24T22:05:59.441Z,99240.19
2023-03-24T22:08:30.482Z,99231.31
2023-03-24T22:10:59.108Z,99236.41
2023-03-24T22:13:27.278Z,99225.13
2023-03-24T22:15:56.005Z,99233.19
2023-03-24T22:18:23.799Z,99221.63
2023-03-24T22:20:55.838Z,99236.94
2023-03-24T22:23:24.992Z,99232.66
2023-03-24T22:25:53.112Z,99233.47
2023-03-24T22:28:21.415Z,99232.09
2023-03-24T22:30:49.076Z,99226.72
2023-03-24T22:33:16.794Z,99226.44
2023-03-24T22:35:44.490Z,99230.47
2023-03-24T22:38:14.987Z,99231.59
2023-03-24T22:40:44.459Z,99242.34
2023-03-24T22:43:12.207Z,99241.53
2023-03-24T22:45:39.881Z,99231.59
2023-03-24T22:50:53.522Z,99256.03
2023-03-24T22:53:21.661Z,99246.59
2023-03-24T22:55:50.942Z,99250.41
2023-03-24T22:58:18.831Z,99252.81
2023-03-24T23:00:48.918Z,99252.31
2023-03-24T23:03:16.748Z,99246.03
2023-03-24T23:05:45.644Z,99238.03
2023-03-24T23:08:15.251Z,99246.63
2023-03-24T23:10:43.878Z,99239.69
2023-03-24T23:13:13.905Z,99239.66
2023-03-24T23:15:42.521Z,99236.41
2023-03-24T23:18:10.893Z,99246.66
2023-03-24T23:20:38.781Z,99248.81
2023-03-24T23:23:07.241Z,99244.50
2023-03-24T23:25:56.881Z,99240.75
2023-03-24T23:28:26.194Z,99255.22
2023-03-24T23:30:57.684Z,99255.97
2023-03-24T23:33:25.478Z,99261.09
2023-03-24T23:35:57.748Z,99248.72
2023-03-24T23:38:26.491Z,99257.13
2023-03-24T23:40:54.167Z,99273.03
2023-03-24T23:43:21.827Z,99266.50
2023-03-24T23:45:55.539Z,99261.72
2023-03-24T23:48:23.256Z,99263.25
2023-03-24T23:50:56.423Z,99272.34
2023-03-24T23:53:24.422Z,99266.75
2023-03-24T23:55:57.091Z,99272.81
2023-03-24T23:58:25.419Z,99271.22
